sensor_id;sensor_type;location;lat;lon;timestamp;temperature;humidity
9980;DHT22;5030;51.532;6.766;2022-12-07T00:00:30;5.10;99.90
9980;DHT22;5030;51.532;6.766;2022-12-07T00:02:55;5.10;99.90
9980;DHT22;5030;51.532;6.766;2022-12-07T00:05:21;5.00;99.90
9980;DHT22;5030;51.532;6.766;2022-12-07T00:07:47;5.20;99.90
9980;DHT22;5030;51.532;6.766;2022-12-07T00:10:12;5.20;99.90
9980;DHT22;5030;51.532;6.766;2022-12-07T00:12:38;5.20;99.90
9980;DHT22;5030;51.532;6.766;2022-12-07T00:15:04;5.20;99.90
9980;DHT22;5030;51.532;6.766;2022-12-07T00:17:29;5.20;99.90
9980;DHT22;5030;51.532;6.766;2022-12-07T00:19:55;5.20;99.90
9980;DHT22;5030;51.532;6.766;2022-12-07T00:22:22;5.20;99.90
9980;DHT22;5030;51.532;6.766;2022-12-07T00:24:48;5.20;99.90
9980;DHT22;5030;51.532;6.766;2022-12-07T00:27:13;5.20;99.90
9980;DHT22;5030;51.532;6.766;2022-12-07T00:29:39;5.20;99.90
9980;DHT22;5030;51.532;6.766;2022-12-07T00:32:05;5.30;99.90
9980;DHT22;5030;51.532;6.766;2022-12-07T00:34:30;5.20;99.90
9980;DHT22;5030;51.532;6.766;2022-12-07T00:36:56;5.20;99.90
9980;DHT22;5030;51.532;6.766;2022-12-07T00:39:21;5.10;99.90
9980;DHT22;5030;51.532;6.766;2022-12-07T00:41:47;5.20;99.90
9980;DHT22;5030;51.532;6.766;2022-12-07T00:44:13;5.20;99.90
9980;DHT22;5030;51.532;6.766;2022-12-07T00:46:39;5.10;99.90
9980;DHT22;5030;51.532;6.766;2022-12-07T00:49:04;5.10;99.90
9980;DHT22;5030;51.532;6.766;2022-12-07T00:51:30;5.10;99.90
9980;DHT22;5030;51.532;6.766;2022-12-07T00:53:56;5.20;99.90
9980;DHT22;5030;51.532;6.766;2022-12-07T00:56:24;5.10;99.90
9980;DHT22;5030;51.532;6.766;2022-12-07T00:58:52;5.10;99.90
9980;DHT22;5030;51.532;6.766;2022-12-07T01:01:19;5.20;99.90
9980;DHT22;5030;51.532;6.766;2022-12-07T01:03:45;5.10;99.90
9980;DHT22;5030;51.532;6.766;2022-12-07T01:06:15;5.00;99.90
9980;DHT22;5030;51.532;6.766;2022-12-07T01:08:41;5.00;99.90
9980;DHT22;5030;51.532;6.766;2022-12-07T01:11:09;5.10;99.90
9980;DHT22;5030;51.532;6.766;2022-12-07T01:13:36;5.00;99.90
9980;DHT22;5030;51.532;6.766;2022-12-07T01:16:04;5.00;99.90
9980;DHT22;5030;51.532;6.766;2022-12-07T01:18:32;4.90;99.90
9980;DHT22;5030;51.532;6.766;2022-12-07T01:21:38;5.00;99.90
9980;DHT22;5030;51.532;6.766;2022-12-07T01:24:05;4.90;99.90
9980;DHT22;5030;51.532;6.766;2022-12-07T01:26:31;4.90;99.90
9980;DHT22;5030;51.532;6.766;2022-12-07T01:28:57;4.90;99.90
9980;DHT22;5030;51.532;6.766;2022-12-07T01:31:25;4.80;99.90
9980;DHT22;5030;51.532;6.766;2022-12-07T01:33:54;4.80;99.90
9980;DHT22;5030;51.532;6.766;2022-12-07T01:36:30;4.80;99.90
9980;DHT22;5030;51.532;6.766;2022-12-07T01:39:02;4.80;99.90
9980;DHT22;5030;51.532;6.766;2022-12-07T01:41:30;4.80;99.90
9980;DHT22;5030;51.532;6.766;2022-12-07T01:46:51;4.70;99.90
9980;DHT22;5030;51.532;6.766;2022-12-07T01:51:49;4.70;99.90
9980;DHT22;5030;51.532;6.766;2022-12-07T01:54:17;4.70;99.90
9980;DHT22;5030;51.532;6.766;2022-12-07T01:56:50;4.80;99.90
9980;DHT22;5030;51.532;6.766;2022-12-07T01:59:18;4.70;99.90
9980;DHT22;5030;51.532;6.766;2022-12-07T02:01:44;4.60;99.90
9980;DHT22;5030;51.532;6.766;2022-12-07T02:04:11;4.50;99.90
9980;DHT22;5030;51.532;6.766;2022-12-07T02:06:37;4.50;99.90
9980;DHT22;5030;51.532;6.766;2022-12-07T02:09:04;4.50;99.90
9980;DHT22;5030;51.532;6.766;2022-12-07T02:11:30;4.60;99.90
9980;DHT22;5030;51.532;6.766;2022-12-07T02:13:56;4.60;99.90
9980;DHT22;5030;51.532;6.766;2022-12-07T02:16:57;4.60;99.90
9980;DHT22;5030;51.532;6.766;2022-12-07T02:27:47;4.40;99.90
9980;DHT22;5030;51.532;6.766;2022-12-07T02:30:19;4.50;99.90
9980;DHT22;5030;51.532;6.766;2022-12-07T02:33:05;4.40;99.90
9980;DHT22;5030;51.532;6.766;2022-12-07T02:36:02;4.30;99.90
9980;DHT22;5030;51.532;6.766;2022-12-07T02:38:53;4.30;99.90
9980;DHT22;5030;51.532;6.766;2022-12-07T02:41:31;4.20;99.90
9980;DHT22;5030;51.532;6.766;2022-12-07T02:44:01;4.10;99.90
9980;DHT22;5030;51.532;6.766;2022-12-07T02:46:39;4.10;99.90
9980;DHT22;5030;51.532;6.766;2022-12-07T02:49:06;4.00;99.90
9980;DHT22;5030;51.532;6.766;2022-12-07T02:51:34;3.90;99.90
9980;DHT22;5030;51.532;6.766;2022-12-07T02:54:12;3.80;99.90
9980;DHT22;5030;51.532;6.766;2022-12-07T03:11:03;3.60;99.90
9980;DHT22;5030;51.532;6.766;2022-12-07T03:13:47;3.60;99.90
9980;DHT22;5030;51.532;6.766;2022-12-07T03:19:18;3.50;99.90
9980;DHT22;5030;51.532;6.766;2022-12-07T03:21:49;3.40;99.90
9980;DHT22;5030;51.532;6.766;2022-12-07T03:27:12;3.30;99.90
9980;DHT22;5030;51.532;6.766;2022-12-07T03:29:54;3.30;99.90
9980;DHT22;5030;51.532;6.766;2022-12-07T03:35:08;3.10;99.90
9980;DHT22;5030;51.532;6.766;2022-12-07T03:37:48;3.30;99.90
9980;DHT22;5030;51.532;6.766;2022-12-07T03:40:41;3.30;99.90
9980;DHT22;5030;51.532;6.766;2022-12-07T03:43:09;3.30;99.90
9980;DHT22;5030;51.532;6.766;2022-12-07T03:45:49;3.30;99.90
9980;DHT22;5030;51.532;6.766;2022-12-07T03:48:35;3.30;99.90
9980;DHT22;5030;51.532;6.766;2022-12-07T03:53:43;3.40;99.90
9980;DHT22;5030;51.532;6.766;2022-12-07T03:56:11;3.50;99.90
9980;DHT22;5030;51.532;6.766;2022-12-07T03:58:37;3.60;99.90
9980;DHT22;5030;51.532;6.766;2022-12-07T04:01:03;3.60;99.90
9980;DHT22;5030;51.532;6.766;2022-12-07T04:03:29;3.60;99.90
9980;DHT22;5030;51.532;6.766;2022-12-07T04:05:55;3.50;99.90
9980;DHT22;5030;51.532;6.766;2022-12-07T04:08:21;3.60;99.90
9980;DHT22;5030;51.532;6.766;2022-12-07T04:10:47;3.60;99.90
9980;DHT22;5030;51.532;6.766;2022-12-07T04:13:12;3.50;99.90
9980;DHT22;5030;51.532;6.766;2022-12-07T04:15:38;3.50;99.90
9980;DHT22;5030;51.532;6.766;2022-12-07T04:18:05;3.40;99.90
9980;DHT22;5030;51.532;6.766;2022-12-07T04:20:31;3.40;99.90
9980;DHT22;5030;51.532;6.766;2022-12-07T04:22:57;3.30;99.90
9980;DHT22;5030;51.532;6.766;2022-12-07T04:25:22;3.20;99.90
9980;DHT22;5030;51.532;6.766;2022-12-07T04:27:48;3.20;99.90
9980;DHT22;5030;51.532;6.766;2022-12-07T04:30:14;3.20;99.90
9980;DHT22;5030;51.532;6.766;2022-12-07T04:32:39;3.20;99.90
9980;DHT22;5030;51.532;6.766;2022-12-07T04:35:05;3.20;99.90
9980;DHT22;5030;51.532;6.766;2022-12-07T04:37:31;3.10;99.90
9980;DHT22;5030;51.532;6.766;2022-12-07T04:39:57;3.00;99.90
9980;DHT22;5030;51.532;6.766;2022-12-07T04:42:22;3.10;99.90
9980;DHT22;5030;51.532;6.766;2022-12-07T04:44:48;3.10;99.90
9980;DHT22;5030;51.532;6.766;2022-12-07T04:47:14;3.30;99.90
9980;DHT22;5030;51.532;6.766;2022-12-07T04:49:39;3.30;99.90
9980;DHT22;5030;51.532;6.766;2022-12-07T04:52:05;3.30;99.90
9980;DHT22;5030;51.532;6.766;2022-12-07T04:54:30;3.30;99.90
9980;DHT22;5030;51.532;6.766;2022-12-07T04:56:56;3.40;99.90
9980;DHT22;5030;51.532;6.766;2022-12-07T04:59:22;3.40;99.90
9980;DHT22;5030;51.532;6.766;2022-12-07T05:01:47;3.40;99.90
9980;DHT22;5030;51.532;6.766;2022-12-07T05:04:13;3.40;99.90
9980;DHT22;5030;51.532;6.766;2022-12-07T05:06:39;3.40;99.90
9980;DHT22;5030;51.532;6.766;2022-12-07T05:09:04;3.50;99.90
9980;DHT22;5030;51.532;6.766;2022-12-07T05:11:30;3.40;99.90
9980;DHT22;5030;51.532;6.766;2022-12-07T05:14:19;3.40;99.90
9980;DHT22;5030;51.532;6.766;2022-12-07T05:16:47;3.40;99.90
9980;DHT22;5030;51.532;6.766;2022-12-07T05:19:14;3.50;99.90
9980;DHT22;5030;51.532;6.766;2022-12-07T05:21:39;3.50;99.90
9980;DHT22;5030;51.532;6.766;2022-12-07T05:24:07;3.40;99.90
9980;DHT22;5030;51.532;6.766;2022-12-07T05:26:33;3.40;99.90
9980;DHT22;5030;51.532;6.766;2022-12-07T05:29:00;3.40;99.90
9980;DHT22;5030;51.532;6.766;2022-12-07T05:31:26;3.40;99.90
9980;DHT22;5030;51.532;6.766;2022-12-07T05:33:53;3.60;99.90
9980;DHT22;5030;51.532;6.766;2022-12-07T05:36:19;3.60;99.90
9980;DHT22;5030;51.532;6.766;2022-12-07T05:38:45;3.60;99.90
9980;DHT22;5030;51.532;6.766;2022-12-07T05:41:14;3.50;99.90
9980;DHT22;5030;51.532;6.766;2022-12-07T05:43:59;3.40;99.90
9980;DHT22;5030;51.532;6.766;2022-12-07T05:46:25;3.40;99.90
9980;DHT22;5030;51.532;6.766;2022-12-07T05:48:51;3.40;99.90
9980;DHT22;5030;51.532;6.766;2022-12-07T05:51:17;3.40;99.90
9980;DHT22;5030;51.532;6.766;2022-12-07T05:53:44;3.50;99.90
9980;DHT22;5030;51.532;6.766;2022-12-07T05:56:10;3.50;99.90
9980;DHT22;5030;51.532;6.766;2022-12-07T05:58:35;3.50;99.90
9980;DHT22;5030;51.532;6.766;2022-12-07T06:01:19;3.40;99.90
9980;DHT22;5030;51.532;6.766;2022-12-07T06:03:45;3.40;99.90
9980;DHT22;5030;51.532;6.766;2022-12-07T06:06:11;3.40;99.90
9980;DHT22;5030;51.532;6.766;2022-12-07T06:08:36;3.40;99.90
9980;DHT22;5030;51.532;6.766;2022-12-07T06:11:02;3.40;99.90
9980;DHT22;5030;51.532;6.766;2022-12-07T06:13:46;3.50;99.90
9980;DHT22;5030;51.532;6.766;2022-12-07T06:16:12;3.60;99.90
9980;DHT22;5030;51.532;6.766;2022-12-07T06:18:37;3.40;99.90
9980;DHT22;5030;51.532;6.766;2022-12-07T06:21:03;3.40;99.90
9980;DHT22;5030;51.532;6.766;2022-12-07T06:23:29;3.40;99.90
9980;DHT22;5030;51.532;6.766;2022-12-07T06:25:54;3.50;99.90
9980;DHT22;5030;51.532;6.766;2022-12-07T06:28:20;3.50;99.90
9980;DHT22;5030;51.532;6.766;2022-12-07T06:30:45;3.50;99.90
9980;DHT22;5030;51.532;6.766;2022-12-07T06:33:11;3.60;99.90
9980;DHT22;5030;51.532;6.766;2022-12-07T06:35:37;3.60;99.90
9980;DHT22;5030;51.532;6.766;2022-12-07T06:38:02;3.40;99.90
9980;DHT22;5030;51.532;6.766;2022-12-07T06:40:28;3.20;99.90
9980;DHT22;5030;51.532;6.766;2022-12-07T06:42:54;3.30;99.90
9980;DHT22;5030;51.532;6.766;2022-12-07T06:45:19;3.30;99.90
9980;DHT22;5030;51.532;6.766;2022-12-07T06:47:45;3.30;99.90
9980;DHT22;5030;51.532;6.766;2022-12-07T06:50:10;3.20;99.90
9980;DHT22;5030;51.532;6.766;2022-12-07T06:52:36;3.20;99.90
9980;DHT22;5030;51.532;6.766;2022-12-07T06:55:02;3.20;99.90
9980;DHT22;5030;51.532;6.766;2022-12-07T06:57:28;3.30;99.90
9980;DHT22;5030;51.532;6.766;2022-12-07T06:59:53;3.20;99.90
9980;DHT22;5030;51.532;6.766;2022-12-07T07:02:19;3.20;99.90
9980;DHT22;5030;51.532;6.766;2022-12-07T07:04:44;3.20;99.90
9980;DHT22;5030;51.532;6.766;2022-12-07T07:07:10;3.20;99.90
9980;DHT22;5030;51.532;6.766;2022-12-07T07:09:36;3.20;99.90
9980;DHT22;5030;51.532;6.766;2022-12-07T07:12:01;3.10;99.90
9980;DHT22;5030;51.532;6.766;2022-12-07T07:14:27;3.20;99.90
9980;DHT22;5030;51.532;6.766;2022-12-07T07:16:52;3.10;99.90
9980;DHT22;5030;51.532;6.766;2022-12-07T07:19:18;3.10;99.90
9980;DHT22;5030;51.532;6.766;2022-12-07T07:21:44;3.30;99.90
9980;DHT22;5030;51.532;6.766;2022-12-07T07:24:09;3.40;99.90
9980;DHT22;5030;51.532;6.766;2022-12-07T07:26:35;3.40;99.90
9980;DHT22;5030;51.532;6.766;2022-12-07T07:29:01;3.40;99.90
9980;DHT22;5030;51.532;6.766;2022-12-07T07:31:26;3.40;99.90
9980;DHT22;5030;51.532;6.766;2022-12-07T07:33:52;3.30;99.90
9980;DHT22;5030;51.532;6.766;2022-12-07T07:36:18;3.40;99.90
9980;DHT22;5030;51.532;6.766;2022-12-07T07:38:45;3.40;99.90
9980;DHT22;5030;51.532;6.766;2022-12-07T07:41:10;3.40;99.90
9980;DHT22;5030;51.532;6.766;2022-12-07T07:43:36;3.40;99.90
9980;DHT22;5030;51.532;6.766;2022-12-07T07:46:01;3.40;99.90
9980;DHT22;5030;51.532;6.766;2022-12-07T07:48:27;3.40;99.90
9980;DHT22;5030;51.532;6.766;2022-12-07T07:50:53;3.60;99.90
9980;DHT22;5030;51.532;6.766;2022-12-07T07:53:18;3.60;99.90
9980;DHT22;5030;51.532;6.766;2022-12-07T07:55:52;3.50;99.90
9980;DHT22;5030;51.532;6.766;2022-12-07T07:58:18;3.50;99.90
9980;DHT22;5030;51.532;6.766;2022-12-07T08:00:44;3.60;99.90
9980;DHT22;5030;51.532;6.766;2022-12-07T08:03:09;3.60;99.90
9980;DHT22;5030;51.532;6.766;2022-12-07T08:05:37;3.60;99.90
9980;DHT22;5030;51.532;6.766;2022-12-07T08:08:03;3.50;99.90
9980;DHT22;5030;51.532;6.766;2022-12-07T08:10:28;3.70;99.90
9980;DHT22;5030;51.532;6.766;2022-12-07T08:12:54;3.70;99.90
9980;DHT22;5030;51.532;6.766;2022-12-07T08:15:41;3.60;99.90
9980;DHT22;5030;51.532;6.766;2022-12-07T08:18:07;3.60;99.90
9980;DHT22;5030;51.532;6.766;2022-12-07T08:20:34;3.50;99.90
9980;DHT22;5030;51.532;6.766;2022-12-07T08:23:00;3.40;99.90
9980;DHT22;5030;51.532;6.766;2022-12-07T08:25:27;3.40;99.90
9980;DHT22;5030;51.532;6.766;2022-12-07T08:27:53;3.40;99.90
9980;DHT22;5030;51.532;6.766;2022-12-07T08:30:18;3.40;99.90
9980;DHT22;5030;51.532;6.766;2022-12-07T08:32:46;3.50;99.90
9980;DHT22;5030;51.532;6.766;2022-12-07T08:35:12;3.50;99.90
9980;DHT22;5030;51.532;6.766;2022-12-07T08:37:38;3.40;99.90
9980;DHT22;5030;51.532;6.766;2022-12-07T08:40:05;3.40;99.90
9980;DHT22;5030;51.532;6.766;2022-12-07T08:42:31;3.40;99.90
9980;DHT22;5030;51.532;6.766;2022-12-07T08:45:06;3.40;99.90
9980;DHT22;5030;51.532;6.766;2022-12-07T08:47:32;3.30;99.90
9980;DHT22;5030;51.532;6.766;2022-12-07T08:49:58;3.40;99.90
9980;DHT22;5030;51.532;6.766;2022-12-07T08:52:31;3.40;99.90
9980;DHT22;5030;51.532;6.766;2022-12-07T08:54:59;3.40;99.90
9980;DHT22;5030;51.532;6.766;2022-12-07T08:57:26;3.40;99.90
9980;DHT22;5030;51.532;6.766;2022-12-07T08:59:52;3.40;99.90
9980;DHT22;5030;51.532;6.766;2022-12-07T09:02:18;3.40;99.90
9980;DHT22;5030;51.532;6.766;2022-12-07T09:04:43;3.50;99.90
9980;DHT22;5030;51.532;6.766;2022-12-07T09:07:09;3.60;99.90
9980;DHT22;5030;51.532;6.766;2022-12-07T09:09:35;3.70;99.90
9980;DHT22;5030;51.532;6.766;2022-12-07T09:12:00;3.80;99.90
9980;DHT22;5030;51.532;6.766;2022-12-07T09:14:26;3.90;99.90
9980;DHT22;5030;51.532;6.766;2022-12-07T09:16:53;4.00;99.90
9980;DHT22;5030;51.532;6.766;2022-12-07T09:19:18;4.10;99.90
9980;DHT22;5030;51.532;6.766;2022-12-07T09:21:44;4.10;99.90
9980;DHT22;5030;51.532;6.766;2022-12-07T09:24:12;4.10;99.90
9980;DHT22;5030;51.532;6.766;2022-12-07T09:26:37;4.10;99.90
9980;DHT22;5030;51.532;6.766;2022-12-07T09:29:04;4.10;99.90
9980;DHT22;5030;51.532;6.766;2022-12-07T09:31:30;4.10;99.90
9980;DHT22;5030;51.532;6.766;2022-12-07T09:33:57;4.20;99.90
9980;DHT22;5030;51.532;6.766;2022-12-07T09:36:24;4.10;99.90
9980;DHT22;5030;51.532;6.766;2022-12-07T09:38:49;4.00;99.90
9980;DHT22;5030;51.532;6.766;2022-12-07T09:41:15;4.00;99.90
9980;DHT22;5030;51.532;6.766;2022-12-07T09:43:41;4.00;99.90
9980;DHT22;5030;51.532;6.766;2022-12-07T09:46:11;4.00;99.90
9980;DHT22;5030;51.532;6.766;2022-12-07T09:48:38;4.00;99.90
9980;DHT22;5030;51.532;6.766;2022-12-07T09:51:17;4.00;99.90
9980;DHT22;5030;51.532;6.766;2022-12-07T09:53:43;4.10;99.90
9980;DHT22;5030;51.532;6.766;2022-12-07T09:56:15;4.10;99.90
9980;DHT22;5030;51.532;6.766;2022-12-07T09:58:42;4.20;99.90
9980;DHT22;5030;51.532;6.766;2022-12-07T10:01:16;4.30;99.90
9980;DHT22;5030;51.532;6.766;2022-12-07T10:03:50;4.30;99.90
9980;DHT22;5030;51.532;6.766;2022-12-07T10:06:16;4.40;99.90
9980;DHT22;5030;51.532;6.766;2022-12-07T10:08:42;4.60;99.90
9980;DHT22;5030;51.532;6.766;2022-12-07T10:11:09;4.60;99.90
9980;DHT22;5030;51.532;6.766;2022-12-07T10:16:07;4.80;99.90
9980;DHT22;5030;51.532;6.766;2022-12-07T10:18:52;5.00;99.90
9980;DHT22;5030;51.532;6.766;2022-12-07T10:21:26;5.10;99.90
9980;DHT22;5030;51.532;6.766;2022-12-07T10:26:40;5.20;99.90
9980;DHT22;5030;51.532;6.766;2022-12-07T10:32:06;5.40;99.90
9980;DHT22;5030;51.532;6.766;2022-12-07T10:34:52;5.50;99.90
9980;DHT22;5030;51.532;6.766;2022-12-07T10:37:41;5.60;99.90
9980;DHT22;5030;51.532;6.766;2022-12-07T10:40:25;5.60;99.90
9980;DHT22;5030;51.532;6.766;2022-12-07T10:48:51;5.80;99.90
9980;DHT22;5030;51.532;6.766;2022-12-07T10:52:10;5.90;99.90
9980;DHT22;5030;51.532;6.766;2022-12-07T10:54:35;5.90;99.90
9980;DHT22;5030;51.532;6.766;2022-12-07T11:02:24;6.00;99.90
9980;DHT22;5030;51.532;6.766;2022-12-07T11:05:23;6.10;99.90
9980;DHT22;5030;51.532;6.766;2022-12-07T11:10:29;6.30;99.90
9980;DHT22;5030;51.532;6.766;2022-12-07T11:19:20;6.20;99.90
9980;DHT22;5030;51.532;6.766;2022-12-07T11:22:16;6.30;99.90
9980;DHT22;5030;51.532;6.766;2022-12-07T11:25:14;6.40;99.90
9980;DHT22;5030;51.532;6.766;2022-12-07T11:27:55;6.50;99.90
9980;DHT22;5030;51.532;6.766;2022-12-07T11:33:33;6.40;99.90
9980;DHT22;5030;51.532;6.766;2022-12-07T11:39:55;6.40;99.90
9980;DHT22;5030;51.532;6.766;2022-12-07T11:42:01;6.20;99.90
9980;DHT22;5030;51.532;6.766;2022-12-07T11:44:37;6.30;99.90
9980;DHT22;5030;51.532;6.766;2022-12-07T11:47:13;6.30;99.90
9980;DHT22;5030;51.532;6.766;2022-12-07T11:50:14;6.40;99.90
9980;DHT22;5030;51.532;6.766;2022-12-07T11:55:24;6.40;99.90
9980;DHT22;5030;51.532;6.766;2022-12-07T11:57:58;6.40;99.90
9980;DHT22;5030;51.532;6.766;2022-12-07T12:00:27;6.50;99.90
9980;DHT22;5030;51.532;6.766;2022-12-07T12:03:01;6.70;99.90
9980;DHT22;5030;51.532;6.766;2022-12-07T12:05:28;6.50;99.90
9980;DHT22;5030;51.532;6.766;2022-12-07T12:21:41;6.50;99.90
9980;DHT22;5030;51.532;6.766;2022-12-07T12:24:18;6.40;99.90
9980;DHT22;5030;51.532;6.766;2022-12-07T12:26:56;6.60;99.90
9980;DHT22;5030;51.532;6.766;2022-12-07T12:29:37;6.70;99.90
9980;DHT22;5030;51.532;6.766;2022-12-07T12:32:43;6.60;99.90
9980;DHT22;5030;51.532;6.766;2022-12-07T12:35:28;6.60;99.90
9980;DHT22;5030;51.532;6.766;2022-12-07T12:40:41;6.70;99.90
9980;DHT22;5030;51.532;6.766;2022-12-07T12:43:47;6.70;99.90
9980;DHT22;5030;51.532;6.766;2022-12-07T12:51:44;6.70;99.90
9980;DHT22;5030;51.532;6.766;2022-12-07T12:54:18;6.50;99.90
9980;DHT22;5030;51.532;6.766;2022-12-07T13:02:47;6.70;99.90
9980;DHT22;5030;51.532;6.766;2022-12-07T13:23:25;6.10;99.90
9980;DHT22;5030;51.532;6.766;2022-12-07T13:36:53;5.90;99.90
9980;DHT22;5030;51.532;6.766;2022-12-07T13:39:22;5.80;99.90
9980;DHT22;5030;51.532;6.766;2022-12-07T13:41:58;5.70;99.90
9980;DHT22;5030;51.532;6.766;2022-12-07T13:44:27;5.70;99.90
9980;DHT22;5030;51.532;6.766;2022-12-07T13:49:36;5.70;99.90
9980;DHT22;5030;51.532;6.766;2022-12-07T13:52:21;5.70;99.90
9980;DHT22;5030;51.532;6.766;2022-12-07T13:57:32;5.60;99.90
9980;DHT22;5030;51.532;6.766;2022-12-07T14:00:00;5.60;99.90
9980;DHT22;5030;51.532;6.766;2022-12-07T14:02:34;5.60;99.90
9980;DHT22;5030;51.532;6.766;2022-12-07T14:07:35;5.60;99.90
9980;DHT22;5030;51.532;6.766;2022-12-07T14:10:04;5.60;99.90
9980;DHT22;5030;51.532;6.766;2022-12-07T14:12:32;5.60;99.90
9980;DHT22;5030;51.532;6.766;2022-12-07T14:15:00;5.60;99.90
9980;DHT22;5030;51.532;6.766;2022-12-07T14:17:28;5.60;99.90
9980;DHT22;5030;51.532;6.766;2022-12-07T14:20:00;5.70;99.90
9980;DHT22;5030;51.532;6.766;2022-12-07T14:25:00;5.60;99.90
9980;DHT22;5030;51.532;6.766;2022-12-07T14:27:31;5.70;99.90
9980;DHT22;5030;51.532;6.766;2022-12-07T14:30:00;5.60;99.90
9980;DHT22;5030;51.532;6.766;2022-12-07T14:32:28;5.70;99.90
9980;DHT22;5030;51.532;6.766;2022-12-07T14:35:09;5.60;99.90
9980;DHT22;5030;51.532;6.766;2022-12-07T14:37:36;5.70;99.90
9980;DHT22;5030;51.532;6.766;2022-12-07T14:40:03;5.60;99.90
9980;DHT22;5030;51.532;6.766;2022-12-07T14:42:30;5.50;99.90
9980;DHT22;5030;51.532;6.766;2022-12-07T14:44:57;5.50;99.90
9980;DHT22;5030;51.532;6.766;2022-12-07T14:47:24;5.40;99.90
9980;DHT22;5030;51.532;6.766;2022-12-07T14:49:50;5.40;99.90
9980;DHT22;5030;51.532;6.766;2022-12-07T14:52:21;5.30;99.90
9980;DHT22;5030;51.532;6.766;2022-12-07T14:54:50;5.30;99.90
9980;DHT22;5030;51.532;6.766;2022-12-07T14:57:16;5.40;99.90
9980;DHT22;5030;51.532;6.766;2022-12-07T14:59:42;5.30;99.90
9980;DHT22;5030;51.532;6.766;2022-12-07T15:02:10;5.20;99.90
9980;DHT22;5030;51.532;6.766;2022-12-07T15:04:36;5.10;99.90
9980;DHT22;5030;51.532;6.766;2022-12-07T15:07:04;5.10;99.90
9980;DHT22;5030;51.532;6.766;2022-12-07T15:09:30;5.00;99.90
9980;DHT22;5030;51.532;6.766;2022-12-07T15:11:57;5.10;99.90
9980;DHT22;5030;51.532;6.766;2022-12-07T15:14:23;5.00;99.90
9980;DHT22;5030;51.532;6.766;2022-12-07T15:16:48;5.00;99.90
9980;DHT22;5030;51.532;6.766;2022-12-07T15:19:17;5.10;99.90
9980;DHT22;5030;51.532;6.766;2022-12-07T15:21:43;5.20;99.90
9980;DHT22;5030;51.532;6.766;2022-12-07T15:24:12;5.10;99.90
9980;DHT22;5030;51.532;6.766;2022-12-07T15:26:39;5.10;99.90
9980;DHT22;5030;51.532;6.766;2022-12-07T15:29:05;5.00;99.90
9980;DHT22;5030;51.532;6.766;2022-12-07T15:31:32;5.10;99.90
9980;DHT22;5030;51.532;6.766;2022-12-07T15:33:57;5.00;99.90
9980;DHT22;5030;51.532;6.766;2022-12-07T15:36:26;4.80;99.90
9980;DHT22;5030;51.532;6.766;2022-12-07T15:38:52;4.70;99.90
9980;DHT22;5030;51.532;6.766;2022-12-07T15:41:18;4.70;99.90
9980;DHT22;5030;51.532;6.766;2022-12-07T15:43:44;4.60;99.90
9980;DHT22;5030;51.532;6.766;2022-12-07T15:46:33;4.60;99.90
9980;DHT22;5030;51.532;6.766;2022-12-07T15:48:59;4.60;99.90
9980;DHT22;5030;51.532;6.766;2022-12-07T15:51:25;4.60;99.90
9980;DHT22;5030;51.532;6.766;2022-12-07T15:53:52;4.50;99.90
9980;DHT22;5030;51.532;6.766;2022-12-07T15:56:18;4.60;99.90
9980;DHT22;5030;51.532;6.766;2022-12-07T15:58:44;4.80;99.90
9980;DHT22;5030;51.532;6.766;2022-12-07T16:01:18;4.80;99.90
9980;DHT22;5030;51.532;6.766;2022-12-07T16:03:45;4.70;99.90
9980;DHT22;5030;51.532;6.766;2022-12-07T16:06:12;4.90;99.90
9980;DHT22;5030;51.532;6.766;2022-12-07T16:08:44;4.90;99.90
9980;DHT22;5030;51.532;6.766;2022-12-07T16:11:11;4.90;99.90
9980;DHT22;5030;51.532;6.766;2022-12-07T16:13:37;4.90;99.90
9980;DHT22;5030;51.532;6.766;2022-12-07T16:16:08;4.90;99.90
9980;DHT22;5030;51.532;6.766;2022-12-07T16:18:35;4.90;99.90
9980;DHT22;5030;51.532;6.766;2022-12-07T16:21:00;5.00;99.90
9980;DHT22;5030;51.532;6.766;2022-12-07T16:23:26;5.10;99.90
9980;DHT22;5030;51.532;6.766;2022-12-07T16:25:52;5.10;99.90
9980;DHT22;5030;51.532;6.766;2022-12-07T16:28:18;5.10;99.90
9980;DHT22;5030;51.532;6.766;2022-12-07T16:30:44;5.10;99.90
9980;DHT22;5030;51.532;6.766;2022-12-07T16:33:10;5.20;99.90
9980;DHT22;5030;51.532;6.766;2022-12-07T16:35:38;5.20;99.90
9980;DHT22;5030;51.532;6.766;2022-12-07T16:38:06;5.20;99.90
9980;DHT22;5030;51.532;6.766;2022-12-07T16:40:32;5.20;99.90
9980;DHT22;5030;51.532;6.766;2022-12-07T16:42:58;5.10;99.90
9980;DHT22;5030;51.532;6.766;2022-12-07T16:45:25;5.10;99.90
9980;DHT22;5030;51.532;6.766;2022-12-07T16:47:50;5.10;99.90
9980;DHT22;5030;51.532;6.766;2022-12-07T16:50:16;5.20;99.90
9980;DHT22;5030;51.532;6.766;2022-12-07T16:52:42;5.30;99.90
9980;DHT22;5030;51.532;6.766;2022-12-07T16:55:08;5.30;99.90
9980;DHT22;5030;51.532;6.766;2022-12-07T16:57:33;5.30;99.90
9980;DHT22;5030;51.532;6.766;2022-12-07T16:59:59;5.40;99.90
9980;DHT22;5030;51.532;6.766;2022-12-07T17:02:25;5.30;99.90
9980;DHT22;5030;51.532;6.766;2022-12-07T17:04:51;5.20;99.90
9980;DHT22;5030;51.532;6.766;2022-12-07T17:07:17;5.40;99.90
9980;DHT22;5030;51.532;6.766;2022-12-07T17:09:42;5.20;99.90
9980;DHT22;5030;51.532;6.766;2022-12-07T17:12:08;5.30;99.90
9980;DHT22;5030;51.532;6.766;2022-12-07T17:14:34;5.30;99.90
9980;DHT22;5030;51.532;6.766;2022-12-07T17:17:18;5.20;99.90
9980;DHT22;5030;51.532;6.766;2022-12-07T17:19:44;5.10;99.90
9980;DHT22;5030;51.532;6.766;2022-12-07T17:22:10;5.10;99.90
9980;DHT22;5030;51.532;6.766;2022-12-07T17:24:38;5.10;99.90
9980;DHT22;5030;51.532;6.766;2022-12-07T17:27:03;5.10;99.90
9980;DHT22;5030;51.532;6.766;2022-12-07T17:29:29;5.00;99.90
9980;DHT22;5030;51.532;6.766;2022-12-07T17:31:55;5.00;99.90
9980;DHT22;5030;51.532;6.766;2022-12-07T17:34:24;5.10;99.90
9980;DHT22;5030;51.532;6.766;2022-12-07T17:36:49;5.00;99.90
9980;DHT22;5030;51.532;6.766;2022-12-07T17:39:17;5.00;99.90
9980;DHT22;5030;51.532;6.766;2022-12-07T17:41:46;5.00;99.90
9980;DHT22;5030;51.532;6.766;2022-12-07T17:44:30;4.80;99.90
9980;DHT22;5030;51.532;6.766;2022-12-07T17:46:56;4.90;99.90
9980;DHT22;5030;51.532;6.766;2022-12-07T17:49:28;4.80;99.90
9980;DHT22;5030;51.532;6.766;2022-12-07T17:51:56;4.90;99.90
9980;DHT22;5030;51.532;6.766;2022-12-07T17:54:42;4.90;99.90
9980;DHT22;5030;51.532;6.766;2022-12-07T17:57:10;4.80;99.90
9980;DHT22;5030;51.532;6.766;2022-12-07T17:59:36;4.80;99.90
9980;DHT22;5030;51.532;6.766;2022-12-07T18:02:01;4.80;99.90
9980;DHT22;5030;51.532;6.766;2022-12-07T18:04:29;4.80;99.90
9980;DHT22;5030;51.532;6.766;2022-12-07T18:06:55;4.70;99.90
9980;DHT22;5030;51.532;6.766;2022-12-07T18:09:21;4.80;99.90
9980;DHT22;5030;51.532;6.766;2022-12-07T18:11:47;4.80;99.90
9980;DHT22;5030;51.532;6.766;2022-12-07T18:14:14;4.80;99.90
9980;DHT22;5030;51.532;6.766;2022-12-07T18:16:45;4.90;99.90
9980;DHT22;5030;51.532;6.766;2022-12-07T18:19:12;4.90;99.90
9980;DHT22;5030;51.532;6.766;2022-12-07T18:21:40;4.90;99.90
9980;DHT22;5030;51.532;6.766;2022-12-07T18:24:09;4.80;99.90
9980;DHT22;5030;51.532;6.766;2022-12-07T18:26:36;5.00;99.90
9980;DHT22;5030;51.532;6.766;2022-12-07T18:29:05;4.90;99.90
9980;DHT22;5030;51.532;6.766;2022-12-07T18:31:33;4.90;99.90
9980;DHT22;5030;51.532;6.766;2022-12-07T18:34:09;4.90;99.90
9980;DHT22;5030;51.532;6.766;2022-12-07T18:36:39;4.90;99.90
9980;DHT22;5030;51.532;6.766;2022-12-07T18:39:07;4.80;99.90
9980;DHT22;5030;51.532;6.766;2022-12-07T18:41:32;4.90;99.90
9980;DHT22;5030;51.532;6.766;2022-12-07T18:43:58;4.80;99.90
9980;DHT22;5030;51.532;6.766;2022-12-07T18:46:24;4.80;99.90
9980;DHT22;5030;51.532;6.766;2022-12-07T18:48:50;4.70;99.90
9980;DHT22;5030;51.532;6.766;2022-12-07T18:51:18;4.70;99.90
9980;DHT22;5030;51.532;6.766;2022-12-07T18:53:44;4.70;99.90